Time;durP1;ratioP1;P1;durP2;ratioP2;P2;SDS_P1;SDS_P2;PMS_P1;PMS_P2;Temp;Humidity;BMP_temperature;BMP_pressure;BME280_temperature;BME280_humidity;BME280_pressure;Samples;Min_cycle;Max_cycle;Signal;HPM_P1;HPM_P2
2021/06/25 00:02:16;;;;;;;5.80;4.80;;;22.80;91.60;;;;;;4867138;29;20074;-85
2021/06/25 00:04:42;;;;;;;4.38;3.90;;;22.80;91.60;;;;;;4898356;29;20080;-85
2021/06/25 00:07:08;;;;;;;5.00;4.05;;;22.80;91.60;;;;;;4882709;29;20037;-86
2021/06/25 00:09:33;;;;;;;4.95;4.28;;;22.80;91.60;;;;;;4882728;29;20040;-85
2021/06/25 00:11:59;;;;;;;6.30;4.43;;;22.80;91.60;;;;;;4882544;29;20043;-83
2021/06/25 00:14:25;;;;;;;5.13;4.35;;;22.80;91.60;;;;;;4897988;29;20447;-83
2021/06/25 00:16:52;;;;;;;7.00;4.57;;;22.80;91.60;;;;;;4867250;29;20044;-83
2021/06/25 00:19:18;;;;;;;5.95;4.82;;;22.80;91.60;;;;;;4882267;29;20025;-83
2021/06/25 00:21:44;;;;;;;4.95;4.40;;;22.80;91.60;;;;;;4898184;29;20049;-83
2021/06/25 00:24:10;;;;;;;7.13;5.47;;;22.80;91.60;;;;;;4899565;29;20028;-85
2021/06/25 00:26:35;;;;;;;6.80;5.00;;;22.80;91.60;;;;;;4898108;29;20131;-83
2021/06/25 00:29:01;;;;;;;7.20;5.75;;;22.80;91.60;;;;;;4882438;29;20164;-84
2021/06/25 00:31:27;;;;;;;5.68;4.88;;;22.80;91.60;;;;;;4897574;29;20033;-84
2021/06/25 00:33:53;;;;;;;7.68;5.68;;;22.80;91.60;;;;;;4882601;29;20028;-84
2021/06/25 00:36:18;;;;;;;7.68;5.93;;;22.80;91.90;;;;;;4897832;29;20055;-85
2021/06/25 00:38:44;;;;;;;6.65;5.65;;;22.80;91.70;;;;;;4882450;29;20123;-84
2021/06/25 00:41:09;;;;;;;6.38;5.55;;;22.80;91.60;;;;;;4882472;29;20053;-85
2021/06/25 00:43:38;;;;;;;6.85;5.68;;;22.80;91.70;;;;;;4882063;29;20035;-84
2021/06/25 00:46:04;;;;;;;8.40;6.57;;;22.80;91.70;;;;;;4882141;29;20479;-83
2021/06/25 00:48:30;;;;;;;7.57;5.65;;;22.80;91.70;;;;;;4866346;29;20077;-84
2021/06/25 00:50:55;;;;;;;7.72;6.15;;;22.80;91.70;;;;;;4898590;29;20487;-84
2021/06/25 00:53:21;;;;;;;6.88;6.15;;;22.80;91.70;;;;;;4881337;29;20060;-84
2021/06/25 00:55:47;;;;;;;7.20;6.32;;;22.80;91.70;;;;;;4881935;29;20032;-85
2021/06/25 00:58:15;;;;;;;9.57;6.88;;;22.80;91.70;;;;;;4881968;29;20471;-87
2021/06/25 01:00:41;;;;;;;6.90;6.20;;;22.80;91.70;;;;;;4897787;29;20036;-85
2021/06/25 01:03:06;;;;;;;9.32;7.65;;;22.80;91.70;;;;;;4882531;29;20498;-84
2021/06/25 01:05:33;;;;;;;9.32;7.20;;;22.70;91.70;;;;;;4867435;29;20036;-86
2021/06/25 01:07:59;;;;;;;9.77;7.90;;;22.80;91.70;;;;;;4902358;29;20041;-85
2021/06/25 01:10:25;;;;;;;7.95;6.90;;;22.80;91.70;;;;;;4904517;29;20035;-84
2021/06/25 01:12:51;;;;;;;8.70;7.15;;;22.80;91.70;;;;;;4901902;29;20052;-85
2021/06/25 01:15:17;;;;;;;7.97;7.05;;;22.80;91.70;;;;;;4881488;29;20471;-85
2021/06/25 01:17:44;;;;;;;10.88;8.18;;;22.80;91.70;;;;;;4898212;29;20398;-84
2021/06/25 01:20:11;;;;;;;9.02;7.25;;;22.80;91.70;;;;;;4896779;29;20029;-85
2021/06/25 01:22:41;;;;;;;9.65;7.82;;;22.80;91.70;;;;;;4897895;29;20464;-85
2021/06/25 01:25:18;;;;;;;9.70;7.78;;;22.70;91.70;;;;;;4897354;29;20032;-85
2021/06/25 01:27:46;;;;;;;10.30;7.55;;;22.70;91.70;;;;;;4897517;29;20127;-84
2021/06/25 01:30:15;;;;;;;9.35;7.97;;;22.80;91.80;;;;;;4898482;29;20037;-84
2021/06/25 01:32:42;;;;;;;9.07;7.78;;;22.70;91.70;;;;;;4897291;29;20032;-84
2021/06/25 01:35:09;;;;;;;10.02;7.93;;;22.80;91.80;;;;;;4898126;29;20028;-84
2021/06/25 01:37:35;;;;;;;11.30;8.10;;;22.70;91.80;;;;;;4898549;29;20172;-85
2021/06/25 01:40:01;;;;;;;10.00;7.88;;;22.70;91.80;;;;;;4896905;29;20127;-83
2021/06/25 01:42:31;;;;;;;9.77;7.97;;;22.70;91.80;;;;;;4896829;29;20051;-83
2021/06/25 01:44:57;;;;;;;10.05;8.57;;;22.80;91.80;;;;;;4896860;29;20052;-83
2021/06/25 01:47:23;;;;;;;10.43;8.48;;;22.70;91.80;;;;;;4896377;29;20088;-84
2021/06/25 01:49:49;;;;;;;10.77;8.27;;;22.80;91.80;;;;;;4881237;29;20040;-84
2021/06/25 01:52:19;;;;;;;11.27;9.90;;;22.70;91.80;;;;;;4881492;29;20089;-83
2021/06/25 01:54:46;;;;;;;9.32;7.85;;;22.80;91.80;;;;;;4897988;29;20032;-83
2021/06/25 01:57:12;;;;;;;10.32;8.77;;;22.80;91.80;;;;;;4896814;29;20128;-83
2021/06/25 01:59:38;;;;;;;10.95;8.90;;;22.80;91.80;;;;;;4896951;29;20037;-83
2021/06/25 02:02:04;;;;;;;10.55;8.30;;;22.80;91.90;;;;;;4901689;29;20028;-84
2021/06/25 02:04:29;;;;;;;9.98;8.48;;;22.80;91.90;;;;;;4882835;29;20033;-84
2021/06/25 02:06:55;;;;;;;11.13;8.90;;;22.80;91.90;;;;;;4900641;29;20060;-84
2021/06/25 02:09:21;;;;;;;9.68;7.88;;;22.80;91.90;;;;;;4884584;29;20029;-85
2021/06/25 02:11:47;;;;;;;10.18;8.00;;;22.80;91.90;;;;;;4900659;29;20085;-84
2021/06/25 02:14:12;;;;;;;12.27;9.15;;;22.70;91.90;;;;;;4884807;29;20517;-84
2021/06/25 02:16:38;;;;;;;9.10;8.10;;;22.70;91.90;;;;;;4884271;29;20079;-84
2021/06/25 02:19:04;;;;;;;11.52;8.45;;;22.70;91.90;;;;;;4885029;29;20123;-84
2021/06/25 02:21:31;;;;;;;9.50;7.97;;;22.80;91.90;;;;;;4884611;29;20032;-83
2021/06/25 02:23:56;;;;;;;12.35;8.13;;;22.80;92.00;;;;;;4900533;29;20037;-83
2021/06/25 02:26:22;;;;;;;9.80;7.97;;;22.70;91.90;;;;;;4901389;29;20041;-84
2021/06/25 02:28:48;;;;;;;9.75;8.25;;;22.80;92.00;;;;;;4900191;29;20039;-83
2021/06/25 02:31:14;;;;;;;10.93;8.35;;;22.80;92.00;;;;;;4901156;29;20064;-84
2021/06/25 02:33:40;;;;;;;10.27;8.05;;;22.80;92.00;;;;;;4901054;29;20080;-84
2021/06/25 02:36:05;;;;;;;9.80;8.25;;;22.70;92.00;;;;;;4884436;29;20036;-83
2021/06/25 02:38:31;;;;;;;9.52;8.07;;;22.70;92.00;;;;;;4868532;29;20084;-84
2021/06/25 02:40:57;;;;;;;9.25;7.60;;;22.80;92.00;;;;;;4899749;29;20056;-83
2021/06/25 02:43:23;;;;;;;8.38;7.47;;;22.70;92.00;;;;;;4899620;29;20037;-84
2021/06/25 02:45:49;;;;;;;9.15;7.95;;;22.70;92.00;;;;;;4884022;29;20451;-84
2021/06/25 02:48:14;;;;;;;8.60;7.45;;;22.80;92.00;;;;;;4884437;29;20043;-83
2021/06/25 02:50:40;;;;;;;10.35;8.52;;;22.70;92.00;;;;;;4899699;29;20036;-83
2021/06/25 02:53:06;;;;;;;8.98;7.93;;;22.70;92.00;;;;;;4899969;29;20399;-84
2021/06/25 02:55:32;;;;;;;9.68;7.50;;;22.70;92.00;;;;;;4900768;29;20507;-85
2021/06/25 02:57:57;;;;;;;9.80;8.05;;;22.70;92.00;;;;;;4883986;29;20415;-84
2021/06/25 03:00:23;;;;;;;10.27;8.85;;;22.70;92.00;;;;;;4868254;29;20033;-86
2021/06/25 03:02:49;;;;;;;9.55;8.20;;;22.70;92.00;;;;;;4899788;29;20029;-84
2021/06/25 03:05:15;;;;;;;10.05;8.20;;;22.70;92.00;;;;;;4884020;29;20089;-84
2021/06/25 03:07:41;;;;;;;9.73;7.97;;;22.70;92.00;;;;;;4899604;29;20037;-84
2021/06/25 03:10:08;;;;;;;9.68;7.70;;;22.70;92.00;;;;;;4899741;29;20064;-84
2021/06/25 03:12:35;;;;;;;9.43;7.65;;;22.70;92.00;;;;;;4883514;29;20040;-84
2021/06/25 03:15:00;;;;;;;11.27;8.20;;;22.70;92.00;;;;;;4899845;29;20032;-84
2021/06/25 03:17:26;;;;;;;9.50;7.95;;;22.70;92.00;;;;;;4900453;29;20394;-85
2021/06/25 03:19:52;;;;;;;9.73;7.78;;;22.70;92.00;;;;;;4899637;29;20455;-84
2021/06/25 03:22:18;;;;;;;9.50;8.02;;;22.70;92.00;;;;;;4884050;29;20480;-84
2021/06/25 03:24:44;;;;;;;8.48;7.38;;;22.70;92.00;;;;;;4899036;29;20043;-85
2021/06/25 03:27:10;;;;;;;9.75;8.50;;;22.70;92.00;;;;;;4883614;29;20410;-85
2021/06/25 03:29:36;;;;;;;8.63;7.55;;;22.70;92.00;;;;;;4898727;29;20028;-85
2021/06/25 03:32:01;;;;;;;9.50;7.97;;;22.70;92.00;;;;;;4899355;29;20543;-85
2021/06/25 03:34:27;;;;;;;8.13;7.22;;;22.70;92.00;;;;;;4898845;29;20606;-86
2021/06/25 03:36:53;;;;;;;11.07;8.52;;;22.70;92.00;;;;;;4898767;29;20083;-85
2021/06/25 03:39:19;;;;;;;9.40;8.05;;;22.70;92.20;;;;;;4883071;29;20064;-84
2021/06/25 03:41:46;;;;;;;9.38;8.05;;;22.70;92.00;;;;;;4882741;29;20071;-84
2021/06/25 03:44:12;;;;;;;9.60;8.13;;;22.70;92.00;;;;;;4898606;29;20029;-84
2021/06/25 03:46:37;;;;;;;9.45;8.10;;;22.70;92.00;;;;;;4882953;29;20047;-84
2021/06/25 03:49:04;;;;;;;8.95;7.80;;;22.70;92.00;;;;;;4883274;29;20530;-84
2021/06/25 03:51:30;;;;;;;9.07;8.05;;;22.70;92.00;;;;;;4882965;29;20076;-85
2021/06/25 03:53:55;;;;;;;10.00;7.80;;;22.70;92.00;;;;;;4867674;29;20036;-84
2021/06/25 03:56:21;;;;;;;10.38;8.48;;;22.70;92.30;;;;;;4882672;29;20490;-84
2021/06/25 03:58:49;;;;;;;8.85;7.60;;;22.70;92.00;;;;;;4882413;29;20028;-84
2021/06/25 04:01:16;;;;;;;9.45;8.10;;;22.70;92.00;;;;;;4899948;29;20494;-85
2021/06/25 04:03:42;;;;;;;9.00;7.95;;;22.70;92.10;;;;;;4898268;29;20403;-85
2021/06/25 04:06:08;;;;;;;8.68;7.68;;;22.70;92.10;;;;;;4898469;29;20020;-85
2021/06/25 04:08:37;;;;;;;10.30;8.15;;;22.70;92.10;;;;;;4882441;29;20448;-84
2021/06/25 04:11:04;;;;;;;10.95;8.23;;;22.70;92.10;;;;;;4899557;29;20025;-85
2021/06/25 04:13:31;;;;;;;9.15;7.97;;;22.70;92.10;;;;;;4898093;29;20123;-89
2021/06/25 04:15:57;;;;;;;8.60;7.70;;;22.70;92.10;;;;;;4882668;29;20080;-84
2021/06/25 04:18:23;;;;;;;10.07;8.45;;;22.70;92.10;;;;;;4898153;29;20028;-84
2021/06/25 04:20:50;;;;;;;9.45;8.07;;;22.70;92.10;;;;;;4899211;29;20028;-84
2021/06/25 04:23:16;;;;;;;11.45;8.73;;;22.70;92.10;;;;;;4898099;29;20036;-84
2021/06/25 04:25:42;;;;;;;9.40;8.38;;;22.70;92.10;;;;;;4899053;29;20041;-84
2021/06/25 04:28:09;;;;;;;9.57;8.13;;;22.70;92.10;;;;;;4883330;29;20032;-84
2021/06/25 04:30:36;;;;;;;8.15;7.35;;;22.70;92.20;;;;;;4907234;29;20036;-85
2021/06/25 04:33:03;;;;;;;8.00;7.20;;;22.70;92.20;;;;;;4904487;29;20033;-84
2021/06/25 04:35:30;;;;;;;8.90;7.82;;;22.70;92.20;;;;;;4883137;29;20036;-84
2021/06/25 04:37:56;;;;;;;9.02;7.80;;;22.70;92.20;;;;;;4882040;29;20049;-84
2021/06/25 04:40:22;;;;;;;8.25;7.35;;;22.70;92.20;;;;;;4897971;29;20036;-84
2021/06/25 04:42:48;;;;;;;9.02;7.53;;;22.70;92.20;;;;;;4897260;29;20491;-84
2021/06/25 04:45:14;;;;;;;9.20;7.65;;;22.70;92.20;;;;;;4897676;29;20032;-84
2021/06/25 04:47:42;;;;;;;8.45;7.20;;;22.70;92.20;;;;;;4898395;29;20037;-84
2021/06/25 04:50:08;;;;;;;8.95;7.97;;;22.70;92.20;;;;;;4897422;29;20032;-84
2021/06/25 04:52:34;;;;;;;8.73;7.10;;;22.70;92.20;;;;;;4898623;29;20029;-84
2021/06/25 04:54:59;;;;;;;8.70;7.35;;;22.70;92.20;;;;;;4881951;29;20505;-83
2021/06/25 04:57:25;;;;;;;8.85;7.50;;;22.70;92.20;;;;;;4881911;29;20037;-83
2021/06/25 04:59:51;;;;;;;9.00;8.10;;;22.70;92.20;;;;;;4897582;29;20029;-84
2021/06/25 05:02:16;;;;;;;8.38;7.25;;;22.70;92.30;;;;;;4881837;29;20116;-83
2021/06/25 05:04:42;;;;;;;8.95;7.72;;;22.70;92.20;;;;;;4896987;29;20061;-83
2021/06/25 05:07:08;;;;;;;8.57;7.68;;;22.70;92.30;;;;;;4897069;29;20127;-83
2021/06/25 05:09:33;;;;;;;7.97;7.18;;;22.70;92.30;;;;;;4898177;29;20081;-84
2021/06/25 05:11:59;;;;;;;8.05;7.22;;;22.70;92.30;;;;;;4866055;29;20036;-83
2021/06/25 05:14:24;;;;;;;8.55;6.57;;;22.70;92.30;;;;;;4881686;29;20037;-84
2021/06/25 05:16:50;;;;;;;8.80;7.38;;;22.70;92.30;;;;;;4896862;29;20112;-84
2021/06/25 05:19:16;;;;;;;8.25;7.07;;;22.70;92.30;;;;;;4881626;29;20039;-84
2021/06/25 05:21:41;;;;;;;8.52;6.85;;;22.70;92.30;;;;;;4897196;29;20423;-84
2021/06/25 05:24:07;;;;;;;8.70;7.07;;;22.70;92.30;;;;;;4881569;29;20503;-84
2021/06/25 05:26:33;;;;;;;7.80;6.78;;;22.80;92.30;;;;;;4896931;29;20036;-84
2021/06/25 05:28:59;;;;;;;7.97;6.47;;;22.70;92.30;;;;;;4881100;29;20036;-83
2021/06/25 05:31:25;;;;;;;7.90;6.75;;;22.70;92.30;;;;;;4897045;29;20029;-84
2021/06/25 05:33:50;;;;;;;7.43;6.53;;;22.70;92.30;;;;;;4881109;29;20471;-84
2021/06/25 05:36:16;;;;;;;7.60;6.60;;;22.70;92.30;;;;;;4881158;29;20424;-84
2021/06/25 05:38:42;;;;;;;7.45;6.10;;;22.70;92.30;;;;;;4880844;29;20041;-85
2021/06/25 05:41:08;;;;;;;8.00;6.68;;;22.70;92.30;;;;;;4881213;29;20134;-83
2021/06/25 05:43:34;;;;;;;6.85;6.00;;;22.80;92.40;;;;;;4866172;29;20060;-85
2021/06/25 05:46:00;;;;;;;8.13;6.20;;;22.70;92.40;;;;;;4896786;29;20495;-83
2021/06/25 05:48:26;;;;;;;6.60;5.85;;;22.70;92.40;;;;;;4866195;29;20036;-84
2021/06/25 05:50:51;;;;;;;6.82;6.13;;;22.70;92.40;;;;;;4896693;29;20047;-84
2021/06/25 05:53:17;;;;;;;7.68;6.25;;;22.80;92.40;;;;;;4897771;29;20368;-84
2021/06/25 05:55:43;;;;;;;8.18;6.45;;;22.80;92.40;;;;;;4896683;29;20124;-85
2021/06/25 05:58:10;;;;;;;8.05;5.95;;;22.80;92.40;;;;;;4898075;29;20503;-84
2021/06/25 06:00:35;;;;;;;6.80;5.85;;;22.80;92.40;;;;;;4896863;29;20032;-84
2021/06/25 06:03:01;;;;;;;6.85;5.95;;;22.80;92.40;;;;;;4897427;29;20036;-83
2021/06/25 06:05:27;;;;;;;7.85;6.28;;;22.80;92.40;;;;;;4865554;29;20037;-84
2021/06/25 06:07:53;;;;;;;6.70;6.00;;;22.80;92.40;;;;;;4897414;29;20029;-84
2021/06/25 06:10:19;;;;;;;6.90;6.20;;;22.80;92.40;;;;;;4881080;29;20044;-84
2021/06/25 06:12:45;;;;;;;6.68;5.68;;;22.80;92.40;;;;;;4896283;29;20132;-85
2021/06/25 06:15:12;;;;;;;7.00;5.88;;;22.80;92.60;;;;;;4881272;29;20033;-84
2021/06/25 06:17:43;;;;;;;6.32;5.40;;;22.80;92.40;;;;;;4883548;29;20049;-85
2021/06/25 06:20:14;;;;;;;6.97;5.63;;;22.80;92.40;;;;;;4878120;29;20041;-85
2021/06/25 06:33:48;;;;;;;6.75;5.53;;;22.80;92.30;;;;;;4878551;29;20125;-88
2021/06/25 06:36:28;;;;;;;6.47;5.72;;;22.80;92.30;;;;;;4862934;29;20045;-85
2021/06/25 06:38:54;;;;;;;6.65;5.95;;;22.80;92.30;;;;;;4882528;29;20041;-85
2021/06/25 06:41:20;;;;;;;7.85;5.80;;;22.80;92.20;;;;;;4879957;29;20388;-84
2021/06/25 06:43:47;;;;;;;6.47;5.80;;;22.90;92.30;;;;;;4877931;29;20067;-85
2021/06/25 06:46:13;;;;;;;7.50;6.30;;;22.80;92.20;;;;;;4877839;29;20040;-85
2021/06/25 06:48:40;;;;;;;6.20;5.60;;;22.90;92.30;;;;;;4877832;29;20038;-84
2021/06/25 06:51:07;;;;;;;7.18;6.00;;;22.80;92.20;;;;;;4878321;29;20025;-84
2021/06/25 06:53:33;;;;;;;6.95;6.20;;;22.90;92.30;;;;;;4882219;29;20085;-84
2021/06/25 06:56:00;;;;;;;7.40;6.22;;;22.90;92.30;;;;;;4864735;29;20033;-84
2021/06/25 06:58:26;;;;;;;7.13;5.63;;;22.90;92.30;;;;;;4865455;29;20052;-84
2021/06/25 07:00:53;;;;;;;7.93;6.90;;;22.90;92.30;;;;;;4881908;29;20078;-85
2021/06/25 07:03:18;;;;;;;7.82;6.32;;;22.90;92.30;;;;;;4864907;29;20033;-84
2021/06/25 07:05:44;;;;;;;7.40;6.25;;;22.90;92.30;;;;;;4865228;29;20088;-85
2021/06/25 07:08:10;;;;;;;7.32;6.53;;;22.90;92.30;;;;;;4864467;29;20039;-83
2021/06/25 07:10:35;;;;;;;8.40;6.50;;;22.90;92.30;;;;;;4864840;29;20105;-83
2021/06/25 07:13:01;;;;;;;8.48;6.70;;;22.90;92.30;;;;;;4880003;29;20104;-84
2021/06/25 07:15:26;;;;;;;8.68;7.13;;;22.90;92.30;;;;;;4880637;29;20468;-83
2021/06/25 07:17:52;;;;;;;7.60;6.80;;;22.90;92.30;;;;;;4881616;29;20033;-84
2021/06/25 07:20:18;;;;;;;8.80;6.80;;;22.90;92.30;;;;;;4864874;29;20037;-84
2021/06/25 07:22:43;;;;;;;8.30;6.82;;;22.90;92.30;;;;;;4880444;29;20072;-84
2021/06/25 07:25:09;;;;;;;7.82;6.53;;;22.90;92.30;;;;;;4864427;29;20041;-84
2021/06/25 07:27:36;;;;;;;8.80;7.07;;;22.90;92.30;;;;;;4864750;29;20037;-84
2021/06/25 07:30:04;;;;;;;8.60;6.75;;;22.90;92.30;;;;;;4879780;29;20492;-84
2021/06/25 07:32:30;;;;;;;6.53;5.72;;;22.90;92.30;;;;;;4879303;29;20089;-84
2021/06/25 07:34:56;;;;;;;7.75;6.45;;;23.00;92.30;;;;;;4864270;29;20033;-84
2021/06/25 07:37:23;;;;;;;8.82;6.82;;;23.00;92.30;;;;;;4879720;29;20033;-85
2021/06/25 07:39:49;;;;;;;8.27;6.78;;;23.00;92.40;;;;;;4879495;29;20048;-83
2021/06/25 07:42:15;;;;;;;7.28;5.88;;;23.00;92.40;;;;;;4879510;29;20068;-84
2021/06/25 07:44:41;;;;;;;6.93;6.22;;;23.00;92.40;;;;;;4880368;29;20488;-84
2021/06/25 07:47:07;;;;;;;7.53;6.50;;;23.00;92.40;;;;;;4864870;29;20037;-84
2021/06/25 07:49:33;;;;;;;6.70;5.78;;;23.10;92.50;;;;;;4881633;29;20546;-83
2021/06/25 07:51:58;;;;;;;7.20;5.72;;;23.10;92.50;;;;;;4881736;29;20025;-84
2021/06/25 07:54:24;;;;;;;6.45;5.57;;;23.10;92.50;;;;;;4865020;29;20084;-83
2021/06/25 07:56:50;;;;;;;6.72;5.53;;;23.10;92.50;;;;;;4880374;29;20045;-84
2021/06/25 07:59:15;;;;;;;6.60;5.43;;;23.10;92.50;;;;;;4864507;29;20399;-84
2021/06/25 08:01:41;;;;;;;6.45;5.53;;;23.10;92.50;;;;;;4864481;29;20040;-83
2021/06/25 08:04:07;;;;;;;5.75;4.90;;;23.10;92.50;;;;;;4878831;29;20128;-83
2021/06/25 08:06:33;;;;;;;6.25;5.50;;;23.10;92.50;;;;;;4864167;29;20051;-85
2021/06/25 08:09:02;;;;;;;5.18;4.65;;;23.10;92.50;;;;;;4879000;29;20116;-84
2021/06/25 08:11:28;;;;;;;5.60;4.85;;;23.10;92.50;;;;;;4879568;29;20033;-84
2021/06/25 08:13:53;;;;;;;4.85;4.18;;;23.10;92.50;;;;;;4864369;29;20372;-84
2021/06/25 08:16:19;;;;;;;6.18;4.50;;;23.10;92.50;;;;;;4864595;29;20057;-84
2021/06/25 08:18:45;;;;;;;5.75;4.60;;;23.10;92.50;;;;;;4880004;29;20116;-84
2021/06/25 08:21:10;;;;;;;5.10;4.50;;;23.10;92.50;;;;;;4879264;29;20447;-84
2021/06/25 08:23:36;;;;;;;5.15;4.30;;;23.10;92.60;;;;;;4879686;29;20067;-83
2021/06/25 08:26:02;;;;;;;5.18;3.88;;;23.20;92.60;;;;;;4863276;29;20499;-84
2021/06/25 08:28:27;;;;;;;5.78;4.72;;;23.20;92.60;;;;;;4879322;29;20037;-84
2021/06/25 08:30:53;;;;;;;4.75;4.25;;;23.20;92.60;;;;;;4879598;29;20399;-84
2021/06/25 08:33:18;;;;;;;4.78;4.25;;;23.20;92.70;;;;;;4863466;29;20061;-83
2021/06/25 08:35:44;;;;;;;5.43;4.47;;;23.20;92.70;;;;;;4880704;29;20040;-85
2021/06/25 08:38:10;;;;;;;4.88;4.28;;;23.20;92.70;;;;;;4878788;29;20456;-84
2021/06/25 08:40:36;;;;;;;5.28;4.07;;;23.20;93.00;;;;;;4863549;29;20555;-84
2021/06/25 08:43:02;;;;;;;5.28;4.45;;;23.20;92.80;;;;;;4863237;29;20174;-84
2021/06/25 08:45:29;;;;;;;4.22;3.83;;;23.20;92.80;;;;;;4880301;29;20029;-84
2021/06/25 08:47:54;;;;;;;4.70;4.18;;;23.20;92.80;;;;;;4878934;29;20087;-84
2021/06/25 08:50:23;;;;;;;4.63;3.95;;;23.20;92.80;;;;;;4863163;29;20438;-84
2021/06/25 08:52:54;;;;;;;4.65;4.00;;;23.20;92.80;;;;;;4880074;29;20033;-84
2021/06/25 08:55:21;;;;;;;3.97;3.58;;;23.20;92.80;;;;;;4862918;29;20492;-84
2021/06/25 08:57:47;;;;;;;4.65;3.92;;;23.20;92.90;;;;;;4880085;29;20115;-84
2021/06/25 09:00:16;;;;;;;3.97;3.35;;;23.20;92.80;;;;;;4878291;29;20556;-84
2021/06/25 09:02:44;;;;;;;3.95;3.55;;;23.20;92.80;;;;;;4878483;29;20058;-84
2021/06/25 09:05:21;;;;;;;3.63;3.30;;;23.20;92.90;;;;;;4863017;29;20033;-84
2021/06/25 09:07:47;;;;;;;4.22;3.53;;;23.30;92.90;;;;;;4879800;29;20506;-84
2021/06/25 09:10:14;;;;;;;3.47;3.17;;;23.30;93.00;;;;;;4862834;29;20037;-84
2021/06/25 09:12:56;;;;;;;3.35;3.05;;;23.30;93.00;;;;;;4862797;29;20093;-84
2021/06/25 09:15:21;;;;;;;3.30;3.00;;;23.30;92.90;;;;;;4877842;29;20036;-84
2021/06/25 09:17:54;;;;;;;3.33;3.03;;;23.20;92.90;;;;;;4862781;29;20041;-84
2021/06/25 09:20:31;;;;;;;3.28;2.97;;;23.30;92.90;;;;;;4878323;29;20033;-84
2021/06/25 09:22:56;;;;;;;2.92;2.50;;;23.30;92.90;;;;;;4879717;29;20032;-84
2021/06/25 09:25:22;;;;;;;3.03;2.72;;;23.30;92.90;;;;;;4862352;29;20037;-83
2021/06/25 09:27:59;;;;;;;3.50;3.20;;;23.30;93.00;;;;;;4862792;29;20037;-82
2021/06/25 09:30:26;;;;;;;3.55;3.25;;;23.30;93.00;;;;;;4878040;29;20112;-83
2021/06/25 09:32:53;;;;;;;3.60;3.28;;;23.30;93.00;;;;;;4879359;29;20025;-82
2021/06/25 09:35:24;;;;;;;3.15;2.85;;;23.30;93.00;;;;;;4877886;29;20029;-83
2021/06/25 09:37:52;;;;;;;3.20;2.90;;;23.30;93.00;;;;;;4879108;29;20085;-83
2021/06/25 09:40:20;;;;;;;4.00;3.08;;;23.30;93.00;;;;;;4878001;29;20539;-83
2021/06/25 09:43:06;;;;;;;3.25;2.95;;;23.30;92.90;;;;;;4862320;29;20063;-83
2021/06/25 09:45:32;;;;;;;4.13;3.08;;;23.30;92.90;;;;;;4879350;29;20025;-83
2021/06/25 09:47:58;;;;;;;3.72;3.15;;;23.30;93.00;;;;;;4879134;29;20365;-83
2021/06/25 09:50:34;;;;;;;3.28;2.85;;;23.30;93.00;;;;;;4877740;29;20064;-83
2021/06/25 09:53:03;;;;;;;3.60;3.20;;;23.30;93.20;;;;;;4879141;29;20045;-83
2021/06/25 09:55:48;;;;;;;3.00;2.70;;;23.30;93.00;;;;;;4878177;29;20063;-83
2021/06/25 09:58:25;;;;;;;3.22;2.75;;;23.30;93.00;;;;;;4877625;29;20037;-84
2021/06/25 10:03:57;;;;;;;2.85;2.60;;;23.30;93.00;;;;;;4879327;29;20033;-83
2021/06/25 10:06:24;;;;;;;2.95;2.72;;;23.30;93.00;;;;;;4877572;29;20097;-84
2021/06/25 10:08:51;;;;;;;3.03;2.72;;;23.30;92.90;;;;;;4879037;29;20026;-84
2021/06/25 10:11:22;;;;;;;3.05;2.78;;;23.30;92.90;;;;;;4862174;29;20040;-84
2021/06/25 10:13:49;;;;;;;3.15;2.83;;;23.30;93.00;;;;;;4887824;29;20080;-85
2021/06/25 10:16:16;;;;;;;2.78;2.58;;;23.30;92.90;;;;;;4895543;29;20027;-84
2021/06/25 10:18:44;;;;;;;2.97;2.60;;;23.30;93.00;;;;;;4896220;29;20065;-84
2021/06/25 10:21:13;;;;;;;2.92;2.63;;;23.30;92.90;;;;;;4897106;29;20033;-84
2021/06/25 10:23:44;;;;;;;3.75;3.17;;;23.30;92.90;;;;;;4897472;29;20028;-84
2021/06/25 10:26:13;;;;;;;3.13;2.67;;;23.30;92.90;;;;;;4897027;29;20048;-84
2021/06/25 10:28:41;;;;;;;3.20;2.90;;;23.30;93.00;;;;;;4901160;29;20032;-83
2021/06/25 10:31:08;;;;;;;2.53;2.33;;;23.30;93.00;;;;;;4899692;29;20143;-84
2021/06/25 10:33:35;;;;;;;2.90;2.60;;;23.30;93.00;;;;;;4884485;29;20029;-83
2021/06/25 10:36:04;;;;;;;2.58;2.38;;;23.30;93.00;;;;;;4899888;29;20028;-83
2021/06/25 10:38:30;;;;;;;2.55;2.35;;;23.30;93.00;;;;;;4899372;29;20074;-84
2021/06/25 10:41:04;;;;;;;2.85;2.60;;;23.30;93.10;;;;;;4899904;29;20029;-84
2021/06/25 10:43:51;;;;;;;2.58;2.30;;;23.30;93.10;;;;;;4900878;29;20120;-83
2021/06/25 10:46:29;;;;;;;4.53;2.85;;;23.30;93.10;;;;;;4900642;29;20025;-84
2021/06/25 10:48:56;;;;;;;2.80;2.58;;;23.30;93.10;;;;;;4899692;29;20459;-83
2021/06/25 10:51:35;;;;;;;2.65;2.45;;;23.30;93.10;;;;;;4899372;29;20052;-83
2021/06/25 10:54:10;;;;;;;3.15;2.85;;;23.30;93.10;;;;;;4899834;29;20081;-83
2021/06/25 10:56:37;;;;;;;3.50;3.17;;;23.30;93.10;;;;;;4900896;29;20124;-82
2021/06/25 10:59:20;;;;;;;2.85;2.55;;;23.30;93.10;;;;;;4884191;29;20033;-82
2021/06/25 11:01:47;;;;;;;3.45;2.90;;;23.30;93.10;;;;;;4899803;29;20123;-83
2021/06/25 11:04:36;;;;;;;2.63;2.42;;;23.30;93.20;;;;;;4899941;29;20100;-83
2021/06/25 11:07:06;;;;;;;3.47;3.17;;;23.30;93.20;;;;;;4906893;29;20033;-83
2021/06/25 11:09:53;;;;;;;2.97;2.67;;;23.30;93.20;;;;;;4905852;29;20487;-84
2021/06/25 11:12:22;;;;;;;2.80;2.60;;;23.30;93.30;;;;;;4901666;29;20025;-83
2021/06/25 11:14:49;;;;;;;2.95;2.65;;;23.30;93.30;;;;;;4900881;29;20024;-83
2021/06/25 11:17:43;;;;;;;2.75;2.47;;;23.30;93.40;;;;;;4868425;29;20064;-84
2021/06/25 11:20:15;;;;;;;3.15;2.85;;;23.30;93.40;;;;;;4900509;29;20064;-83
2021/06/25 11:22:41;;;;;;;3.20;2.90;;;23.30;93.50;;;;;;4900418;29;20028;-83
2021/06/25 11:25:13;;;;;;;3.35;2.72;;;23.30;93.60;;;;;;4899407;29;20080;-83
2021/06/25 11:30:51;;;;;;;3.42;2.83;;;23.30;93.60;;;;;;4900552;29;20033;-83
2021/06/25 11:33:38;;;;;;;3.30;2.72;;;23.30;93.70;;;;;;4900216;29;20494;-83
2021/06/25 11:36:13;;;;;;;3.22;2.75;;;23.30;93.80;;;;;;4885678;29;20510;-84
2021/06/25 11:38:54;;;;;;;3.47;3.17;;;23.30;93.80;;;;;;4899140;29;20068;-84
2021/06/25 11:41:21;;;;;;;3.70;3.15;;;23.30;93.80;;;;;;4898496;29;20044;-84
2021/06/25 11:43:50;;;;;;;3.35;2.95;;;23.30;93.80;;;;;;4899079;29;20127;-84
2021/06/25 11:46:17;;;;;;;4.22;3.17;;;23.30;93.90;;;;;;4883571;29;20040;-85
2021/06/25 11:48:44;;;;;;;4.15;3.53;;;23.30;93.90;;;;;;4899474;29;20123;-84
2021/06/25 11:51:12;;;;;;;3.45;3.15;;;23.30;93.90;;;;;;4899231;29;20040;-83
2021/06/25 11:53:42;;;;;;;3.65;3.30;;;23.30;93.90;;;;;;4898802;29;20033;-84
2021/06/25 11:56:17;;;;;;;3.53;3.22;;;23.30;93.90;;;;;;4898738;29;20035;-84
2021/06/25 11:59:03;;;;;;;3.83;3.40;;;23.30;94.00;;;;;;4900297;29;20045;-84
2021/06/25 12:01:29;;;;;;;3.45;3.15;;;23.30;94.00;;;;;;4899425;29;20076;-84
2021/06/25 12:03:56;;;;;;;3.78;3.30;;;23.30;94.10;;;;;;4898877;29;20024;-84
2021/06/25 12:06:23;;;;;;;3.90;3.50;;;23.30;94.10;;;;;;4867574;29;20033;-82
2021/06/25 12:08:55;;;;;;;3.90;3.50;;;23.30;94.10;;;;;;4898587;29;20193;-84
2021/06/25 12:11:22;;;;;;;3.80;3.45;;;23.30;94.20;;;;;;4897979;29;20119;-84
2021/06/25 12:14:10;;;;;;;4.28;3.47;;;23.30;94.20;;;;;;4882868;29;20037;-84
2021/06/25 12:16:39;;;;;;;5.22;3.75;;;23.30;94.30;;;;;;4897853;29;20464;-84
2021/06/25 12:19:12;;;;;;;4.10;3.70;;;23.30;94.30;;;;;;4898242;29;20036;-84
2021/06/25 12:21:38;;;;;;;4.10;3.70;;;23.30;94.40;;;;;;4897853;29;20036;-83
2021/06/25 12:24:06;;;;;;;4.30;3.88;;;23.30;94.40;;;;;;4882733;29;20040;-83
2021/06/25 12:26:32;;;;;;;4.10;3.70;;;23.30;94.50;;;;;;4882567;29;20072;-82
2021/06/25 12:29:00;;;;;;;4.53;4.07;;;23.30;94.40;;;;;;4898118;29;20064;-83
2021/06/25 12:31:30;;;;;;;3.90;3.50;;;23.30;94.40;;;;;;4897470;29;20036;-83
2021/06/25 12:34:13;;;;;;;3.92;3.33;;;23.30;94.70;;;;;;4899378;29;20076;-83
2021/06/25 12:36:39;;;;;;;3.83;3.53;;;23.30;94.40;;;;;;4897452;29;20036;-83
2021/06/25 12:39:07;;;;;;;4.70;3.83;;;23.30;94.40;;;;;;4897815;29;20043;-83
2021/06/25 12:41:44;;;;;;;4.03;3.63;;;23.30;94.40;;;;;;4897383;29;20044;-84
2021/06/25 12:44:11;;;;;;;3.60;3.30;;;23.30;94.30;;;;;;4897874;29;20036;-83
2021/06/25 12:46:37;;;;;;;3.95;3.22;;;23.30;94.30;;;;;;4898738;29;20513;-83
2021/06/25 12:49:05;;;;;;;3.10;2.80;;;23.30;94.30;;;;;;4897161;29;20025;-83
2021/06/25 12:51:36;;;;;;;3.05;2.75;;;23.40;94.20;;;;;;4898519;29;20116;-84
2021/06/25 12:54:03;;;;;;;3.10;2.80;;;23.40;94.20;;;;;;4898647;29;20104;-83
2021/06/25 12:56:38;;;;;;;3.22;2.92;;;23.40;94.10;;;;;;4897105;29;20077;-84
2021/06/25 12:59:27;;;;;;;2.97;2.67;;;23.40;94.10;;;;;;4899051;29;20032;-84
2021/06/25 13:02:00;;;;;;;3.28;2.90;;;23.40;94.10;;;;;;4897624;29;20033;-84
2021/06/25 13:04:28;;;;;;;3.03;2.70;;;23.40;94.10;;;;;;4881619;29;20047;-83
2021/06/25 13:07:00;;;;;;;2.30;2.10;;;23.40;94.00;;;;;;4897045;29;20101;-83